sensor_id;sensor_type;location;lat;lon;timestamp;temperature;humidity
65036;DHT22;51603;49.300;8.880;2023-03-31T00:02:08;9.90;99.90
65036;DHT22;51603;49.300;8.880;2023-03-31T00:04:41;9.90;99.90
65036;DHT22;51603;49.300;8.880;2023-03-31T00:07:14;9.80;99.90
65036;DHT22;51603;49.300;8.880;2023-03-31T00:09:41;9.80;99.90
65036;DHT22;51603;49.300;8.880;2023-03-31T00:12:11;9.80;99.90
65036;DHT22;51603;49.300;8.880;2023-03-31T00:14:37;9.80;99.90
65036;DHT22;51603;49.300;8.880;2023-03-31T00:17:02;9.80;99.90
65036;DHT22;51603;49.300;8.880;2023-03-31T00:19:29;9.80;99.90
65036;DHT22;51603;49.300;8.880;2023-03-31T00:21:58;9.80;99.90
65036;DHT22;51603;49.300;8.880;2023-03-31T00:24:27;9.80;99.90
65036;DHT22;51603;49.300;8.880;2023-03-31T00:26:53;9.90;99.90
65036;DHT22;51603;49.300;8.880;2023-03-31T00:29:18;9.90;99.90
65036;DHT22;51603;49.300;8.880;2023-03-31T00:31:44;9.90;99.90
65036;DHT22;51603;49.300;8.880;2023-03-31T00:34:09;9.90;99.90
65036;DHT22;51603;49.300;8.880;2023-03-31T00:36:35;9.90;99.90
65036;DHT22;51603;49.300;8.880;2023-03-31T00:39:10;9.80;99.90
65036;DHT22;51603;49.300;8.880;2023-03-31T00:41:37;9.80;99.90
65036;DHT22;51603;49.300;8.880;2023-03-31T00:44:15;9.70;99.90
65036;DHT22;51603;49.300;8.880;2023-03-31T00:47:03;9.70;99.90
65036;DHT22;51603;49.300;8.880;2023-03-31T00:49:44;9.70;99.90
65036;DHT22;51603;49.300;8.880;2023-03-31T00:54:41;9.70;99.90
65036;DHT22;51603;49.300;8.880;2023-03-31T00:57:08;9.80;99.90
65036;DHT22;51603;49.300;8.880;2023-03-31T00:59:42;9.90;99.90
65036;DHT22;51603;49.300;8.880;2023-03-31T01:02:12;10.10;99.90
65036;DHT22;51603;49.300;8.880;2023-03-31T01:04:43;10.30;99.90
65036;DHT22;51603;49.300;8.880;2023-03-31T01:07:20;10.70;99.90
65036;DHT22;51603;49.300;8.880;2023-03-31T01:09:47;11.10;99.90
65036;DHT22;51603;49.300;8.880;2023-03-31T01:12:16;11.40;99.90
65036;DHT22;51603;49.300;8.880;2023-03-31T01:14:42;11.50;99.90
65036;DHT22;51603;49.300;8.880;2023-03-31T01:17:08;11.60;99.90
65036;DHT22;51603;49.300;8.880;2023-03-31T01:19:48;11.60;99.90
65036;DHT22;51603;49.300;8.880;2023-03-31T01:34:09;11.50;99.90
65036;DHT22;51603;49.300;8.880;2023-03-31T01:42:20;11.40;99.90
65036;DHT22;51603;49.300;8.880;2023-03-31T01:47:45;11.30;99.90
65036;DHT22;51603;49.300;8.880;2023-03-31T01:53:59;11.40;99.90
65036;DHT22;51603;49.300;8.880;2023-03-31T01:56:38;11.40;99.90
65036;DHT22;51603;49.300;8.880;2023-03-31T01:59:14;11.50;99.90
65036;DHT22;51603;49.300;8.880;2023-03-31T02:01:48;11.40;99.90
65036;DHT22;51603;49.300;8.880;2023-03-31T02:04:20;11.50;99.90
65036;DHT22;51603;49.300;8.880;2023-03-31T02:06:51;11.40;99.90
65036;DHT22;51603;49.300;8.880;2023-03-31T02:09:24;11.50;99.90
65036;DHT22;51603;49.300;8.880;2023-03-31T02:11:52;11.50;99.90
65036;DHT22;51603;49.300;8.880;2023-03-31T02:14:22;11.50;99.90
65036;DHT22;51603;49.300;8.880;2023-03-31T02:16:53;11.40;99.90
65036;DHT22;51603;49.300;8.880;2023-03-31T02:19:26;11.50;99.90
65036;DHT22;51603;49.300;8.880;2023-03-31T02:21:53;11.50;99.90
65036;DHT22;51603;49.300;8.880;2023-03-31T02:24:22;11.50;99.90
65036;DHT22;51603;49.300;8.880;2023-03-31T02:27:02;11.40;99.90
65036;DHT22;51603;49.300;8.880;2023-03-31T02:29:29;11.40;99.90
65036;DHT22;51603;49.300;8.880;2023-03-31T02:32:21;11.50;99.90
65036;DHT22;51603;49.300;8.880;2023-03-31T02:34:47;11.40;99.90
65036;DHT22;51603;49.300;8.880;2023-03-31T02:37:14;11.40;99.90
65036;DHT22;51603;49.300;8.880;2023-03-31T02:39:42;11.30;99.90
65036;DHT22;51603;49.300;8.880;2023-03-31T02:42:09;11.30;99.90
65036;DHT22;51603;49.300;8.880;2023-03-31T02:44:35;11.30;99.90
65036;DHT22;51603;49.300;8.880;2023-03-31T02:47:03;11.20;99.90
65036;DHT22;51603;49.300;8.880;2023-03-31T02:49:30;11.10;99.90
65036;DHT22;51603;49.300;8.880;2023-03-31T02:55:09;11.10;99.90
65036;DHT22;51603;49.300;8.880;2023-03-31T03:16:11;10.70;99.90
65036;DHT22;51603;49.300;8.880;2023-03-31T03:19:05;10.60;99.90
65036;DHT22;51603;49.300;8.880;2023-03-31T03:21:30;10.60;99.90
65036;DHT22;51603;49.300;8.880;2023-03-31T03:23:55;10.60;99.90
65036;DHT22;51603;49.300;8.880;2023-03-31T03:26:22;10.60;99.90
65036;DHT22;51603;49.300;8.880;2023-03-31T03:28:51;10.50;99.90
65036;DHT22;51603;49.300;8.880;2023-03-31T03:31:17;10.50;99.90
65036;DHT22;51603;49.300;8.880;2023-03-31T03:33:43;10.50;99.90
65036;DHT22;51603;49.300;8.880;2023-03-31T03:36:09;10.50;99.90
65036;DHT22;51603;49.300;8.880;2023-03-31T03:38:35;10.50;99.90
65036;DHT22;51603;49.300;8.880;2023-03-31T03:41:01;10.50;99.90
65036;DHT22;51603;49.300;8.880;2023-03-31T03:43:26;10.60;99.90
65036;DHT22;51603;49.300;8.880;2023-03-31T03:45:52;10.60;99.90
65036;DHT22;51603;49.300;8.880;2023-03-31T03:48:18;10.60;99.90
65036;DHT22;51603;49.300;8.880;2023-03-31T03:50:45;10.60;99.90
65036;DHT22;51603;49.300;8.880;2023-03-31T03:53:11;10.60;99.90
65036;DHT22;51603;49.300;8.880;2023-03-31T03:55:37;10.60;99.90
65036;DHT22;51603;49.300;8.880;2023-03-31T03:58:02;10.50;99.90
65036;DHT22;51603;49.300;8.880;2023-03-31T04:00:28;10.50;99.90
65036;DHT22;51603;49.300;8.880;2023-03-31T04:02:54;10.50;99.90
65036;DHT22;51603;49.300;8.880;2023-03-31T04:05:19;10.40;99.90
65036;DHT22;51603;49.300;8.880;2023-03-31T04:07:45;10.40;99.90
65036;DHT22;51603;49.300;8.880;2023-03-31T04:10:10;10.30;99.90
65036;DHT22;51603;49.300;8.880;2023-03-31T04:12:36;10.30;99.90
65036;DHT22;51603;49.300;8.880;2023-03-31T04:15:02;10.30;99.90
65036;DHT22;51603;49.300;8.880;2023-03-31T04:17:28;10.30;99.90
65036;DHT22;51603;49.300;8.880;2023-03-31T04:20:05;10.30;99.90
65036;DHT22;51603;49.300;8.880;2023-03-31T04:22:35;10.20;99.90
65036;DHT22;51603;49.300;8.880;2023-03-31T04:25:09;10.20;99.90
65036;DHT22;51603;49.300;8.880;2023-03-31T04:27:46;10.20;99.90
65036;DHT22;51603;49.300;8.880;2023-03-31T04:30:15;10.20;99.90
65036;DHT22;51603;49.300;8.880;2023-03-31T04:32:51;10.10;99.90
65036;DHT22;51603;49.300;8.880;2023-03-31T04:35:18;10.10;99.90
65036;DHT22;51603;49.300;8.880;2023-03-31T04:37:46;10.10;99.90
65036;DHT22;51603;49.300;8.880;2023-03-31T04:40:12;10.10;99.90
65036;DHT22;51603;49.300;8.880;2023-03-31T04:42:37;10.10;99.90
65036;DHT22;51603;49.300;8.880;2023-03-31T04:45:03;10.10;99.90
65036;DHT22;51603;49.300;8.880;2023-03-31T04:47:29;10.10;99.90
65036;DHT22;51603;49.300;8.880;2023-03-31T04:49:54;10.00;99.90
65036;DHT22;51603;49.300;8.880;2023-03-31T04:52:20;10.00;99.90
65036;DHT22;51603;49.300;8.880;2023-03-31T04:54:46;10.00;99.90
65036;DHT22;51603;49.300;8.880;2023-03-31T04:57:12;10.00;99.90
65036;DHT22;51603;49.300;8.880;2023-03-31T04:59:38;10.00;99.90
65036;DHT22;51603;49.300;8.880;2023-03-31T05:02:03;10.10;99.90
65036;DHT22;51603;49.300;8.880;2023-03-31T05:04:29;10.10;99.90
65036;DHT22;51603;49.300;8.880;2023-03-31T05:06:54;10.10;99.90
65036;DHT22;51603;49.300;8.880;2023-03-31T05:09:20;10.10;99.90
65036;DHT22;51603;49.300;8.880;2023-03-31T05:11:46;10.10;99.90
65036;DHT22;51603;49.300;8.880;2023-03-31T05:14:12;10.10;99.90
65036;DHT22;51603;49.300;8.880;2023-03-31T05:16:37;10.10;99.90
65036;DHT22;51603;49.300;8.880;2023-03-31T05:19:03;10.10;99.90
65036;DHT22;51603;49.300;8.880;2023-03-31T05:21:29;10.00;99.90
65036;DHT22;51603;49.300;8.880;2023-03-31T05:23:56;10.00;99.90
65036;DHT22;51603;49.300;8.880;2023-03-31T05:26:22;10.00;99.90
65036;DHT22;51603;49.300;8.880;2023-03-31T05:28:52;10.00;99.90
65036;DHT22;51603;49.300;8.880;2023-03-31T05:31:18;10.00;99.90
65036;DHT22;51603;49.300;8.880;2023-03-31T05:33:44;10.00;99.90
65036;DHT22;51603;49.300;8.880;2023-03-31T05:36:12;9.90;99.90
65036;DHT22;51603;49.300;8.880;2023-03-31T05:38:38;9.90;99.90
65036;DHT22;51603;49.300;8.880;2023-03-31T05:41:04;9.90;99.90
65036;DHT22;51603;49.300;8.880;2023-03-31T05:43:31;9.90;99.90
65036;DHT22;51603;49.300;8.880;2023-03-31T05:45:56;9.90;99.90
65036;DHT22;51603;49.300;8.880;2023-03-31T05:48:22;9.90;99.90
65036;DHT22;51603;49.300;8.880;2023-03-31T05:50:48;9.90;99.90
65036;DHT22;51603;49.300;8.880;2023-03-31T05:53:13;9.90;99.90
65036;DHT22;51603;49.300;8.880;2023-03-31T05:55:39;9.80;99.90
65036;DHT22;51603;49.300;8.880;2023-03-31T05:58:05;9.80;99.90
65036;DHT22;51603;49.300;8.880;2023-03-31T06:00:31;9.80;99.90
65036;DHT22;51603;49.300;8.880;2023-03-31T06:02:57;9.70;99.90
65036;DHT22;51603;49.300;8.880;2023-03-31T06:05:24;9.70;99.90
65036;DHT22;51603;49.300;8.880;2023-03-31T06:07:52;9.70;99.90
65036;DHT22;51603;49.300;8.880;2023-03-31T06:10:18;9.70;99.90
65036;DHT22;51603;49.300;8.880;2023-03-31T06:12:44;9.70;99.90
65036;DHT22;51603;49.300;8.880;2023-03-31T06:15:09;9.70;99.90
65036;DHT22;51603;49.300;8.880;2023-03-31T06:17:35;9.70;99.90
65036;DHT22;51603;49.300;8.880;2023-03-31T06:20:01;9.60;99.90
65036;DHT22;51603;49.300;8.880;2023-03-31T06:22:29;9.60;99.90
65036;DHT22;51603;49.300;8.880;2023-03-31T06:24:55;9.60;99.90
65036;DHT22;51603;49.300;8.880;2023-03-31T06:27:20;9.60;99.90
65036;DHT22;51603;49.300;8.880;2023-03-31T06:29:46;9.60;99.90
65036;DHT22;51603;49.300;8.880;2023-03-31T06:32:12;9.60;99.90
65036;DHT22;51603;49.300;8.880;2023-03-31T06:34:37;9.70;99.90
65036;DHT22;51603;49.300;8.880;2023-03-31T06:37:03;9.60;99.90
65036;DHT22;51603;49.300;8.880;2023-03-31T06:39:28;9.70;99.90
65036;DHT22;51603;49.300;8.880;2023-03-31T06:41:54;9.60;99.90
65036;DHT22;51603;49.300;8.880;2023-03-31T06:44:20;9.60;99.90
65036;DHT22;51603;49.300;8.880;2023-03-31T06:46:47;9.60;99.90
65036;DHT22;51603;49.300;8.880;2023-03-31T06:49:13;9.70;99.90
65036;DHT22;51603;49.300;8.880;2023-03-31T06:51:39;9.70;99.90
65036;DHT22;51603;49.300;8.880;2023-03-31T06:54:04;9.70;99.90
65036;DHT22;51603;49.300;8.880;2023-03-31T06:56:30;9.70;99.90
65036;DHT22;51603;49.300;8.880;2023-03-31T06:58:56;9.70;99.90
65036;DHT22;51603;49.300;8.880;2023-03-31T07:01:21;9.70;99.90
65036;DHT22;51603;49.300;8.880;2023-03-31T07:03:47;9.70;99.90
65036;DHT22;51603;49.300;8.880;2023-03-31T07:06:12;9.80;99.90
65036;DHT22;51603;49.300;8.880;2023-03-31T07:08:38;9.90;99.90
65036;DHT22;51603;49.300;8.880;2023-03-31T07:11:03;10.00;99.90
65036;DHT22;51603;49.300;8.880;2023-03-31T07:13:29;10.10;99.90
65036;DHT22;51603;49.300;8.880;2023-03-31T07:15:55;10.10;99.90
65036;DHT22;51603;49.300;8.880;2023-03-31T07:18:22;10.10;99.90
65036;DHT22;51603;49.300;8.880;2023-03-31T07:20:56;10.20;99.90
65036;DHT22;51603;49.300;8.880;2023-03-31T07:23:22;10.30;99.90
65036;DHT22;51603;49.300;8.880;2023-03-31T07:25:47;10.30;99.90
65036;DHT22;51603;49.300;8.880;2023-03-31T07:28:13;10.40;99.90
65036;DHT22;51603;49.300;8.880;2023-03-31T07:30:39;10.40;99.90
65036;DHT22;51603;49.300;8.880;2023-03-31T07:33:05;10.50;99.90
65036;DHT22;51603;49.300;8.880;2023-03-31T07:35:31;10.50;99.90
65036;DHT22;51603;49.300;8.880;2023-03-31T07:37:57;10.60;99.90
65036;DHT22;51603;49.300;8.880;2023-03-31T07:40:25;10.70;99.90
65036;DHT22;51603;49.300;8.880;2023-03-31T07:42:52;10.70;99.90
65036;DHT22;51603;49.300;8.880;2023-03-31T07:45:19;10.80;99.90
65036;DHT22;51603;49.300;8.880;2023-03-31T07:47:46;10.80;99.90
65036;DHT22;51603;49.300;8.880;2023-03-31T07:50:13;10.90;99.90
65036;DHT22;51603;49.300;8.880;2023-03-31T07:52:39;10.90;99.90
65036;DHT22;51603;49.300;8.880;2023-03-31T07:55:06;11.00;99.90
65036;DHT22;51603;49.300;8.880;2023-03-31T07:57:32;11.10;99.90
65036;DHT22;51603;49.300;8.880;2023-03-31T07:59:57;11.10;99.90
65036;DHT22;51603;49.300;8.880;2023-03-31T08:02:23;11.20;99.90
65036;DHT22;51603;49.300;8.880;2023-03-31T08:04:49;11.30;99.90
65036;DHT22;51603;49.300;8.880;2023-03-31T08:07:15;11.30;99.90
65036;DHT22;51603;49.300;8.880;2023-03-31T08:09:43;11.30;99.90
65036;DHT22;51603;49.300;8.880;2023-03-31T08:12:10;11.30;99.90
65036;DHT22;51603;49.300;8.880;2023-03-31T08:14:36;11.10;99.90
65036;DHT22;51603;49.300;8.880;2023-03-31T08:17:01;11.10;99.90
65036;DHT22;51603;49.300;8.880;2023-03-31T08:19:28;11.10;99.90
65036;DHT22;51603;49.300;8.880;2023-03-31T08:21:53;11.10;99.90
65036;DHT22;51603;49.300;8.880;2023-03-31T08:24:19;11.20;99.90
65036;DHT22;51603;49.300;8.880;2023-03-31T08:26:45;11.30;99.90
65036;DHT22;51603;49.300;8.880;2023-03-31T08:29:11;11.40;99.90
65036;DHT22;51603;49.300;8.880;2023-03-31T08:31:36;11.50;99.90
65036;DHT22;51603;49.300;8.880;2023-03-31T08:34:02;11.50;99.90
65036;DHT22;51603;49.300;8.880;2023-03-31T08:36:28;11.60;99.90
65036;DHT22;51603;49.300;8.880;2023-03-31T08:38:54;11.60;99.90
65036;DHT22;51603;49.300;8.880;2023-03-31T08:45:16;11.70;99.90
65036;DHT22;51603;49.300;8.880;2023-03-31T08:47:09;11.80;99.90
65036;DHT22;51603;49.300;8.880;2023-03-31T08:49:44;12.00;99.90
65036;DHT22;51603;49.300;8.880;2023-03-31T08:52:18;12.20;99.90
65036;DHT22;51603;49.300;8.880;2023-03-31T08:54:50;12.30;99.90
65036;DHT22;51603;49.300;8.880;2023-03-31T08:57:23;12.40;99.90
65036;DHT22;51603;49.300;8.880;2023-03-31T08:59:49;12.50;99.90
65036;DHT22;51603;49.300;8.880;2023-03-31T09:16:15;13.00;99.90
65036;DHT22;51603;49.300;8.880;2023-03-31T09:18:44;13.00;99.90
65036;DHT22;51603;49.300;8.880;2023-03-31T09:21:17;13.00;99.90
65036;DHT22;51603;49.300;8.880;2023-03-31T09:23:47;13.00;99.90
65036;DHT22;51603;49.300;8.880;2023-03-31T09:26:33;13.10;99.90
65036;DHT22;51603;49.300;8.880;2023-03-31T09:29:01;13.20;99.90
65036;DHT22;51603;49.300;8.880;2023-03-31T09:31:31;13.10;99.90
65036;DHT22;51603;49.300;8.880;2023-03-31T09:34:00;13.10;99.90
65036;DHT22;51603;49.300;8.880;2023-03-31T09:36:26;13.10;99.90
65036;DHT22;51603;49.300;8.880;2023-03-31T09:38:52;13.30;99.90
65036;DHT22;51603;49.300;8.880;2023-03-31T09:41:18;13.50;99.90
65036;DHT22;51603;49.300;8.880;2023-03-31T09:43:45;13.60;99.90
65036;DHT22;51603;49.300;8.880;2023-03-31T09:46:27;13.60;99.90
65036;DHT22;51603;49.300;8.880;2023-03-31T09:49:10;13.70;99.90
65036;DHT22;51603;49.300;8.880;2023-03-31T09:51:40;13.80;99.90
65036;DHT22;51603;49.300;8.880;2023-03-31T09:54:19;14.00;99.90
65036;DHT22;51603;49.300;8.880;2023-03-31T09:56:50;14.10;99.90
65036;DHT22;51603;49.300;8.880;2023-03-31T09:59:37;14.20;99.90
65036;DHT22;51603;49.300;8.880;2023-03-31T10:02:27;14.10;99.90
65036;DHT22;51603;49.300;8.880;2023-03-31T10:04:54;13.90;99.90
65036;DHT22;51603;49.300;8.880;2023-03-31T10:07:23;13.90;99.90
65036;DHT22;51603;49.300;8.880;2023-03-31T10:09:50;13.80;99.90
65036;DHT22;51603;49.300;8.880;2023-03-31T10:12:20;13.70;99.90
65036;DHT22;51603;49.300;8.880;2023-03-31T10:14:51;13.70;99.90
65036;DHT22;51603;49.300;8.880;2023-03-31T10:17:19;13.70;99.90
65036;DHT22;51603;49.300;8.880;2023-03-31T10:19:51;13.70;99.90
65036;DHT22;51603;49.300;8.880;2023-03-31T10:24:46;13.40;99.90
65036;DHT22;51603;49.300;8.880;2023-03-31T10:27:27;12.80;99.90
65036;DHT22;51603;49.300;8.880;2023-03-31T10:30:00;12.50;99.90
65036;DHT22;51603;49.300;8.880;2023-03-31T10:32:29;12.30;99.90
65036;DHT22;51603;49.300;8.880;2023-03-31T10:34:56;12.30;99.90
65036;DHT22;51603;49.300;8.880;2023-03-31T10:37:25;12.30;99.90
65036;DHT22;51603;49.300;8.880;2023-03-31T10:39:59;12.40;99.90
65036;DHT22;51603;49.300;8.880;2023-03-31T10:42:27;12.70;99.90
65036;DHT22;51603;49.300;8.880;2023-03-31T10:47:52;13.30;99.90
65036;DHT22;51603;49.300;8.880;2023-03-31T10:50:18;13.50;99.90
65036;DHT22;51603;49.300;8.880;2023-03-31T10:52:45;13.60;99.90
65036;DHT22;51603;49.300;8.880;2023-03-31T10:55:22;13.60;99.90
65036;DHT22;51603;49.300;8.880;2023-03-31T10:57:57;13.50;99.90
65036;DHT22;51603;49.300;8.880;2023-03-31T11:03:38;13.30;99.90
65036;DHT22;51603;49.300;8.880;2023-03-31T11:06:15;13.00;99.90
65036;DHT22;51603;49.300;8.880;2023-03-31T11:17:26;9.70;99.90
65036;DHT22;51603;49.300;8.880;2023-03-31T11:25:26;10.00;99.90
65036;DHT22;51603;49.300;8.880;2023-03-31T11:28:25;10.10;99.90
65036;DHT22;51603;49.300;8.880;2023-03-31T11:42:16;11.20;99.90
65036;DHT22;51603;49.300;8.880;2023-03-31T11:44:50;11.40;99.90
65036;DHT22;51603;49.300;8.880;2023-03-31T11:47:24;11.70;99.90
65036;DHT22;51603;49.300;8.880;2023-03-31T11:49:54;11.90;99.90
65036;DHT22;51603;49.300;8.880;2023-03-31T11:52:34;12.10;99.90
65036;DHT22;51603;49.300;8.880;2023-03-31T11:55:21;12.30;99.90
65036;DHT22;51603;49.300;8.880;2023-03-31T12:00:28;12.50;99.90
65036;DHT22;51603;49.300;8.880;2023-03-31T12:03:10;12.60;99.90
65036;DHT22;51603;49.300;8.880;2023-03-31T12:06:02;12.50;99.90
65036;DHT22;51603;49.300;8.880;2023-03-31T12:08:37;12.40;99.90
65036;DHT22;51603;49.300;8.880;2023-03-31T12:11:25;12.40;99.90
65036;DHT22;51603;49.300;8.880;2023-03-31T12:14:00;12.40;99.90
65036;DHT22;51603;49.300;8.880;2023-03-31T12:16:39;12.50;99.90
65036;DHT22;51603;49.300;8.880;2023-03-31T12:19:16;12.50;99.90
65036;DHT22;51603;49.300;8.880;2023-03-31T12:21:47;12.50;99.90
65036;DHT22;51603;49.300;8.880;2023-03-31T12:24:13;12.50;99.90
65036;DHT22;51603;49.300;8.880;2023-03-31T12:26:48;12.60;99.90
65036;DHT22;51603;49.300;8.880;2023-03-31T12:29:22;12.60;99.90
65036;DHT22;51603;49.300;8.880;2023-03-31T12:31:55;12.70;99.90
65036;DHT22;51603;49.300;8.880;2023-03-31T12:34:23;12.80;99.90
65036;DHT22;51603;49.300;8.880;2023-03-31T12:39:39;12.80;99.90
65036;DHT22;51603;49.300;8.880;2023-03-31T12:45:17;12.60;99.90
65036;DHT22;51603;49.300;8.880;2023-03-31T12:47:59;12.60;99.90
65036;DHT22;51603;49.300;8.880;2023-03-31T12:56:08;12.40;99.90
65036;DHT22;51603;49.300;8.880;2023-03-31T12:58:39;12.40;99.90
65036;DHT22;51603;49.300;8.880;2023-03-31T13:01:20;12.40;99.90
65036;DHT22;51603;49.300;8.880;2023-03-31T13:03:49;12.40;99.90
65036;DHT22;51603;49.300;8.880;2023-03-31T13:08:58;12.40;99.90
65036;DHT22;51603;49.300;8.880;2023-03-31T13:16:47;12.30;99.90
65036;DHT22;51603;49.300;8.880;2023-03-31T13:19:33;12.20;99.90
65036;DHT22;51603;49.300;8.880;2023-03-31T13:22:02;12.10;99.90
65036;DHT22;51603;49.300;8.880;2023-03-31T13:24:29;12.10;99.90
65036;DHT22;51603;49.300;8.880;2023-03-31T13:26:57;12.00;99.90
65036;DHT22;51603;49.300;8.880;2023-03-31T13:29:24;12.00;99.90
65036;DHT22;51603;49.300;8.880;2023-03-31T13:34:31;11.90;99.90
65036;DHT22;51603;49.300;8.880;2023-03-31T13:48:02;12.10;99.90
65036;DHT22;51603;49.300;8.880;2023-03-31T13:57:07;12.40;99.90
65036;DHT22;51603;49.300;8.880;2023-03-31T14:02:47;12.70;99.90
65036;DHT22;51603;49.300;8.880;2023-03-31T14:05:32;12.80;99.90
65036;DHT22;51603;49.300;8.880;2023-03-31T14:08:10;12.90;99.90
65036;DHT22;51603;49.300;8.880;2023-03-31T14:10:38;12.90;99.90
65036;DHT22;51603;49.300;8.880;2023-03-31T14:13:12;12.90;99.90
65036;DHT22;51603;49.300;8.880;2023-03-31T14:15:48;13.00;99.90
65036;DHT22;51603;49.300;8.880;2023-03-31T14:18:20;13.20;99.90
65036;DHT22;51603;49.300;8.880;2023-03-31T14:23:34;13.20;99.90
65036;DHT22;51603;49.300;8.880;2023-03-31T14:26:10;13.10;99.90
65036;DHT22;51603;49.300;8.880;2023-03-31T14:28:58;13.00;99.90
65036;DHT22;51603;49.300;8.880;2023-03-31T14:31:29;13.00;99.90
65036;DHT22;51603;49.300;8.880;2023-03-31T14:34:27;13.00;99.90
65036;DHT22;51603;49.300;8.880;2023-03-31T14:36:59;12.90;99.90
65036;DHT22;51603;49.300;8.880;2023-03-31T14:39:40;12.80;99.90
65036;DHT22;51603;49.300;8.880;2023-03-31T14:42:15;12.80;99.90
65036;DHT22;51603;49.300;8.880;2023-03-31T14:44:42;12.80;99.90
65036;DHT22;51603;49.300;8.880;2023-03-31T14:47:23;12.80;99.90
65036;DHT22;51603;49.300;8.880;2023-03-31T14:50:12;12.70;99.90
65036;DHT22;51603;49.300;8.880;2023-03-31T14:52:39;12.50;99.90
65036;DHT22;51603;49.300;8.880;2023-03-31T14:55:05;12.20;99.90
65036;DHT22;51603;49.300;8.880;2023-03-31T14:57:38;11.80;99.90
65036;DHT22;51603;49.300;8.880;2023-03-31T15:00:07;11.60;99.90
65036;DHT22;51603;49.300;8.880;2023-03-31T15:02:35;11.40;99.90
65036;DHT22;51603;49.300;8.880;2023-03-31T15:05:03;11.20;99.90
65036;DHT22;51603;49.300;8.880;2023-03-31T15:07:31;11.20;99.90
65036;DHT22;51603;49.300;8.880;2023-03-31T15:09:57;11.20;99.90
65036;DHT22;51603;49.300;8.880;2023-03-31T15:12:23;11.20;99.90
65036;DHT22;51603;49.300;8.880;2023-03-31T15:15:09;11.20;99.90
65036;DHT22;51603;49.300;8.880;2023-03-31T15:17:39;11.20;99.90
65036;DHT22;51603;49.300;8.880;2023-03-31T15:22:50;11.30;99.90
65036;DHT22;51603;49.300;8.880;2023-03-31T15:25:15;11.30;99.90
65036;DHT22;51603;49.300;8.880;2023-03-31T15:27:50;11.30;99.90
65036;DHT22;51603;49.300;8.880;2023-03-31T15:30:20;11.30;99.90
65036;DHT22;51603;49.300;8.880;2023-03-31T15:32:47;11.40;99.90
65036;DHT22;51603;49.300;8.880;2023-03-31T15:35:23;11.40;99.90
65036;DHT22;51603;49.300;8.880;2023-03-31T15:37:51;11.40;99.90
65036;DHT22;51603;49.300;8.880;2023-03-31T15:40:24;11.50;99.90
65036;DHT22;51603;49.300;8.880;2023-03-31T15:43:03;11.50;99.90
65036;DHT22;51603;49.300;8.880;2023-03-31T15:45:47;11.60;99.90
65036;DHT22;51603;49.300;8.880;2023-03-31T15:48:21;11.60;99.90
65036;DHT22;51603;49.300;8.880;2023-03-31T15:50:48;11.70;99.90
65036;DHT22;51603;49.300;8.880;2023-03-31T15:53:30;11.70;99.90
65036;DHT22;51603;49.300;8.880;2023-03-31T15:55:57;11.80;99.90
65036;DHT22;51603;49.300;8.880;2023-03-31T15:59:06;11.80;99.90
65036;DHT22;51603;49.300;8.880;2023-03-31T16:01:33;11.80;99.90
65036;DHT22;51603;49.300;8.880;2023-03-31T16:04:01;11.80;99.90
65036;DHT22;51603;49.300;8.880;2023-03-31T16:06:49;11.80;99.90
65036;DHT22;51603;49.300;8.880;2023-03-31T16:09:27;11.70;99.90
65036;DHT22;51603;49.300;8.880;2023-03-31T16:11:57;11.70;99.90
65036;DHT22;51603;49.300;8.880;2023-03-31T16:14:30;11.70;99.90
65036;DHT22;51603;49.300;8.880;2023-03-31T16:17:06;11.70;99.90
65036;DHT22;51603;49.300;8.880;2023-03-31T16:19:50;11.60;99.90
65036;DHT22;51603;49.300;8.880;2023-03-31T16:22:20;11.60;99.90
65036;DHT22;51603;49.300;8.880;2023-03-31T16:24:46;11.60;99.90
65036;DHT22;51603;49.300;8.880;2023-03-31T16:27:13;11.50;99.90
65036;DHT22;51603;49.300;8.880;2023-03-31T16:29:38;11.50;99.90
65036;DHT22;51603;49.300;8.880;2023-03-31T16:32:16;11.50;99.90
65036;DHT22;51603;49.300;8.880;2023-03-31T16:34:56;11.40;99.90
65036;DHT22;51603;49.300;8.880;2023-03-31T16:37:22;11.40;99.90
65036;DHT22;51603;49.300;8.880;2023-03-31T16:39:48;11.40;99.90
65036;DHT22;51603;49.300;8.880;2023-03-31T16:42:14;11.30;99.90
65036;DHT22;51603;49.300;8.880;2023-03-31T16:44:40;11.30;99.90
65036;DHT22;51603;49.300;8.880;2023-03-31T16:47:06;11.40;99.90
65036;DHT22;51603;49.300;8.880;2023-03-31T16:49:31;11.40;99.90
65036;DHT22;51603;49.300;8.880;2023-03-31T16:51:57;11.40;99.90
65036;DHT22;51603;49.300;8.880;2023-03-31T16:54:23;11.40;99.90
65036;DHT22;51603;49.300;8.880;2023-03-31T16:56:48;11.40;99.90
65036;DHT22;51603;49.300;8.880;2023-03-31T16:59:14;11.30;99.90
65036;DHT22;51603;49.300;8.880;2023-03-31T17:01:39;11.30;99.90
65036;DHT22;51603;49.300;8.880;2023-03-31T17:04:06;11.20;99.90
65036;DHT22;51603;49.300;8.880;2023-03-31T17:06:31;11.20;99.90
65036;DHT22;51603;49.300;8.880;2023-03-31T17:08:57;11.10;99.90
65036;DHT22;51603;49.300;8.880;2023-03-31T17:11:23;11.00;99.90
65036;DHT22;51603;49.300;8.880;2023-03-31T17:13:48;10.90;99.90
65036;DHT22;51603;49.300;8.880;2023-03-31T17:16:14;10.90;99.90
65036;DHT22;51603;49.300;8.880;2023-03-31T17:18:42;10.90;99.90
65036;DHT22;51603;49.300;8.880;2023-03-31T17:21:09;10.80;99.90
65036;DHT22;51603;49.300;8.880;2023-03-31T17:23:36;10.70;99.90
65036;DHT22;51603;49.300;8.880;2023-03-31T17:26:03;10.60;99.90
65036;DHT22;51603;49.300;8.880;2023-03-31T17:28:29;10.50;99.90
65036;DHT22;51603;49.300;8.880;2023-03-31T17:30:55;10.50;99.90
65036;DHT22;51603;49.300;8.880;2023-03-31T17:33:22;10.50;99.90
65036;DHT22;51603;49.300;8.880;2023-03-31T17:35:47;10.50;99.90
65036;DHT22;51603;49.300;8.880;2023-03-31T17:38:13;10.40;99.90
65036;DHT22;51603;49.300;8.880;2023-03-31T17:40:40;10.40;99.90
65036;DHT22;51603;49.300;8.880;2023-03-31T17:43:05;10.40;99.90
65036;DHT22;51603;49.300;8.880;2023-03-31T17:45:32;10.30;99.90
65036;DHT22;51603;49.300;8.880;2023-03-31T17:47:58;10.20;99.90
65036;DHT22;51603;49.300;8.880;2023-03-31T17:50:24;10.20;99.90
65036;DHT22;51603;49.300;8.880;2023-03-31T17:52:50;10.10;99.90
65036;DHT22;51603;49.300;8.880;2023-03-31T17:55:17;10.00;99.90
65036;DHT22;51603;49.300;8.880;2023-03-31T17:57:43;10.00;99.90
65036;DHT22;51603;49.300;8.880;2023-03-31T18:00:09;9.90;99.90
65036;DHT22;51603;49.300;8.880;2023-03-31T18:02:39;9.90;99.90
65036;DHT22;51603;49.300;8.880;2023-03-31T18:05:06;9.90;99.90
65036;DHT22;51603;49.300;8.880;2023-03-31T18:07:33;9.90;99.90
65036;DHT22;51603;49.300;8.880;2023-03-31T18:10:00;9.90;99.90
65036;DHT22;51603;49.300;8.880;2023-03-31T18:12:27;9.90;99.90
65036;DHT22;51603;49.300;8.880;2023-03-31T18:14:54;9.90;99.90
65036;DHT22;51603;49.300;8.880;2023-03-31T18:17:22;9.90;99.90
65036;DHT22;51603;49.300;8.880;2023-03-31T18:19:48;9.90;99.90
65036;DHT22;51603;49.300;8.880;2023-03-31T18:22:13;9.90;99.90